Highlands Peak, California Weather observations

Data are for observation ending at time listed.
 Day   Time    Ave.   Ave.  Ave.  Vector   Max.   Stn.    Total    Solar   Ave.  
  of    of     Air    Rel.  Wind   Wind    Wind   Baro.  Precip.   Rad.    Soil  
Year   Day     Temp.  Hum.  Speed  Dir.    Gust   Pres.                    Temp. 
2014   (PST)    F      %     mph   deg.    mph     mb.     in.     W/m2     F   
------------------------------------------------------------------------------
 355   19:50   56.3    76    6.1   270      9.9   936.9    0.00       0    56.0
 355   20:00   56.6    75    7.4   275     10.8   936.8    0.00       0    55.9
 355   20:10   56.5    75    7.3   268     11.3   936.8    0.00       0    55.8
 355   20:20   56.2    76    8.5   274     14.1   936.7    0.00       0    55.7
 355   20:30   56.0    76    8.6   269     12.9   936.8    0.00       0    55.5
 355   20:40   56.0    76    8.3   285     12.9   936.9    0.00       0    55.4
 355   20:50   56.0    76    8.6   280     12.1   937.0    0.00       0    55.3
 355   21:00   56.1    75    6.3   288     11.2   937.0    0.00       0    55.2
 355   21:10   56.0    76    7.3   285     11.0   936.9    0.00       0    55.1
 355   21:20   56.2    75    8.3   279     11.5   936.8    0.00       0    55.0
 355   21:30   56.4    74    7.4   267     12.1   936.8    0.00       0    54.8
 355   21:40   55.8    76    9.1   271     12.2   936.9    0.00       0    54.8
 355   21:50   56.2    74    9.1   271     14.6   937.0    0.00       0    54.7
 355   22:00   56.1    75    7.9   286     10.7   937.1    0.00       0    54.6
 355   22:10   56.1    74    8.2   284     12.1   937.1    0.00       0    54.5
 355   22:20   56.3    74    7.8   279     11.5   937.2    0.00       0    54.5
 355   22:30   56.2    74    6.2   288     10.7   937.1    0.00       0    54.4
 355   22:40   56.7    72    5.1   276      8.8   937.1    0.00       0    54.3
 355   22:50   56.6    73    2.9   248      4.9   937.1    0.00       0    54.3
 355   23:00   56.6    73    5.3   280      9.4   937.1    0.00       0    54.1
 355   23:10   56.1    74    6.0   283      8.6   937.1    0.00       0    54.1
 355   23:20   56.4    72    2.2   253      4.8   937.1    0.00       0    54.0
 355   23:30   56.7    72    5.8   271      9.1   937.0    0.00       0    53.9
 355   23:40   56.9    71    6.2   276      9.9   937.1    0.00       0    53.8
 355   23:50   57.7    67    3.5   291      6.5   937.0    0.00       0    53.8
 356    0:00   58.3    66    4.4   283      9.0   936.9    0.00       0    53.7
 356    0:10   57.1    70    5.7   272      9.3   936.8    0.00       0    53.6
 356    0:20   57.7    66    2.8     1      8.3   936.7    0.00       0    53.6
 356    0:30   59.1    62    4.8   322     14.0   936.5    0.00       0    53.5
 356    0:40   59.4    61    5.7   311     17.9   936.3    0.00       0    53.3
 356    0:50   59.8    59    7.9   338     20.5   936.3    0.00       0    53.2
 356    1:00   58.6    64    5.5   281     11.5   936.3    0.00       0    53.2
 356    1:10   59.5    59    7.8   345     17.6   936.3    0.00       0    53.1
 356    1:20   59.9    58    5.3   314     11.8   936.4    0.00       0    53.2
 356    1:30   60.7    55    9.3    12     19.8   936.4    0.00       0    53.1
 356    1:40   60.4    57    6.1   294     12.6   936.5    0.00       0    53.1
 356    1:50   59.3    60    3.7   259      7.5   936.6    0.00       0    53.1
 356    2:00   59.7    58    2.9   275      8.0   936.6    0.00       0    53.1
 356    2:10   59.2    61    4.7   280     12.3   936.7    0.00       0    53.0
 356    2:20   59.8    59    3.0   239      7.2   936.7    0.00       0    53.0
 356    2:30   59.5    59    3.7   261      8.2   936.6    0.00       0    53.0
 356    2:40   59.4    60    6.3   268     10.0   936.5    0.00       0    52.9
 356    2:50   58.9    61    4.4   267      9.1   936.5    0.00       0    52.9
 356    3:00   59.1    58    5.6   354     12.3   936.4    0.00       0    52.8
 356    3:10   60.5    55    6.4   315     17.5   936.3    0.00       0    52.8
 356    3:20   60.4    54    6.0   317     12.0   936.1    0.00       0    52.7
 356    3:30   59.5    58    6.1   286     14.1   936.1    0.00       0    52.6
 356    3:40   59.0    60    6.2   268     14.8   936.0    0.00       0    52.6
 356    3:50   59.0    57    5.8   291     14.0   936.1    0.00       0    52.6
 356    4:00   59.5    58    6.4   281     13.0   936.1    0.00       0    52.6
 356    4:10   60.1    54    6.1   288     15.1   936.1    0.00       0    52.5
 356    4:20   59.5    57    6.7   264     13.5   936.1    0.00       0    52.4
 356    4:30   59.3    58    5.2   263     10.7   936.0    0.00       0    52.4
 356    4:40   59.5    57    5.4   270     12.3   936.0    0.00       0    52.4
 356    4:50   58.7    59    6.1   284     12.4   936.0    0.00       0    52.4
 356    5:00   58.8    59    5.0   268      9.8   936.1    0.00       0    52.3
 356    5:10   59.2    56    4.2   320     14.1   936.0    0.00       0    52.3
 356    5:20   60.3    52    5.4   325     16.4   936.0    0.00       0    52.2
 356    5:30   59.9    54    5.6   297     15.7   936.1    0.00       0    52.2
 356    5:40   60.5    48    7.9     4     19.9   936.0    0.00       0    52.1
 356    5:50   61.4    44    4.9   348     13.6   936.0    0.00       0    52.1
 356    6:00   61.3    45    3.2   266      9.1   936.0    0.00       0    52.1
 356    6:10   61.4    43    3.9   317     11.8   936.0    0.00       0    52.1
 356    6:20   60.0    53    3.7   270      8.0   936.0    0.00       0    52.1
 356    6:30   58.7    57    5.0   271      9.9   936.0    0.00       0    52.0
 356    6:40   59.3    52    5.8   295      9.8   936.0    0.00       0    52.0
 356    6:50   59.5    51    4.7   314     10.3   935.9    0.00       0    51.9
 356    7:00   59.9    50    3.9   300      8.5   935.9    0.00       0    51.9
 356    7:10   58.4    55    7.4   294     11.5   935.9    0.00       2    51.9
 356    7:20   57.9    57    7.2   289     10.7   936.0    0.00       5    51.8
 356    7:30   57.5    58    8.0   301     12.6   936.1    0.00       9    51.7
 356    7:40   57.3    57    6.2   313     10.9   936.1    0.00      12    51.7
 356    7:50   57.8    56    7.4   300     11.3   936.1    0.00      55    51.7
 356    8:00   58.7    54    8.0   298     12.6   936.1    0.00     129    51.6
 356    8:10   58.5    55    8.8   307     12.2   936.3    0.00     159    51.6
 356    8:20   58.9    54    9.1   314     13.2   936.3    0.00     190    51.5
 356    8:30   59.3    53    8.0   322     13.2   936.3    0.00     220    51.5
 356    8:40   59.5    53    8.2   319     11.8   936.4    0.00     250    51.5
 356    8:50   59.6    53    9.2   315     11.9   936.5    0.00     280    51.5
 356    9:00   60.0    53    6.1   322      9.7   936.5    0.00     309    51.5
 356    9:10   61.1    50    3.7   298      5.8   936.5    0.00     337    51.5
 356    9:20   61.5    48    3.6   284      6.8   936.6    0.00     364    51.5
 356    9:30   61.4    50    3.9   320      6.9   936.6    0.00     389    51.5
 356    9:40   63.3    47    1.4    39      3.9   936.7    0.00     413    51.6
 356    9:50   63.3    46    1.6    15      3.7   936.7    0.00     436    51.7
 356   10:00   63.3    47    1.8   329      3.6   936.8    0.00     457    51.8
 356   10:10   63.7    47    1.3     5      4.2   936.9    0.00     477    51.9
 356   10:20   63.5    48    0.9     8      3.5   936.8    0.00     495    52.0
 356   10:30   64.9    48    2.8   176      5.5   936.7    0.00     512    52.1
 356   10:40   65.7    49    2.5   173      5.0   936.7    0.00     527    52.3
 356   10:50   65.5    47    1.6   216      4.2   936.6    0.00     541    52.5
 356   11:00   65.6    49    1.9   256      4.4   936.5    0.00     551    52.6
 356   11:10   65.0    53    2.4   245      6.4   936.4    0.00     560    52.8
 356   11:20   65.9    47    2.6   319      7.2   936.3    0.00     573    53.0
 356   11:30   65.0    51    3.6   264      6.9   936.1    0.00     580    53.2
 356   11:40   64.4    55    4.4   257      6.7   935.9    0.00     585    53.4
 356   11:50   64.2    52    5.0   262      9.6   935.7    0.00     588    53.6
 356   12:00   63.9    50    6.8   257      9.1   935.5    0.00     589    53.9
 356   12:10   64.1    49    3.5   238      6.5   935.4    0.00     587    54.1
 356   12:20   64.3    53    4.8   257      8.6   935.3    0.00     585    54.3
 356   12:30   63.7    54    4.7   249      6.6   935.2    0.00     579    54.5
 356   12:40   63.7    53    5.0   257      7.9   935.1    0.00     573    54.8
 356   12:50   63.6    55    5.2   272      9.6   935.0    0.00     565    55.0
 356   13:00   63.5    58    4.5   265      8.7   934.9    0.00     555    55.2
 356   13:10   63.1    60    3.0   252      6.1   934.7    0.00     543    55.5
 356   13:20   63.1    60    4.7   258      8.3   934.6    0.00     531    55.8
 356   13:30   63.3    59    4.9   257      7.9   934.6    0.00     516    56.1
 356   13:40   63.7    58    3.7   246      6.4   934.6    0.00     500    56.3
 356   13:50   63.9    55    2.5   238      4.7   934.4    0.00     483    56.5
 356   14:00   64.2    54    3.8   255      6.5   934.2    0.00     464    56.8
 356   14:10   64.3    56    4.8   252      7.7   934.2    0.00     443    57.1
 356   14:20   64.5    56    3.7   258      7.6   934.1    0.00     421    57.3
 356   14:30   64.8    56    3.2   248      6.6   934.1    0.00     398    57.6
 356   14:40   64.7    54    4.0   261      6.0   934.1    0.00     373    57.8
 356   14:50   64.4    61    4.5   264      6.4   934.2    0.00     346    58.0
 356   15:00   63.8    65    3.1   257      5.3   934.2    0.00     318    58.2
 356   15:10   64.0    63    2.6   246      5.7   934.3    0.00     291    58.4
 356   15:20   64.0    61    3.4   255      5.6   934.3    0.00     263    58.6
 356   15:30   63.6    61    1.9   232      5.0   934.3    0.00     235    58.7
 356   15:40   64.2    62    3.2   221      5.9   934.2    0.00     201    58.8
 356   15:50   63.1    65    3.4   243      6.5   934.1    0.00     179    58.9
 356   16:00   62.8    64    3.4   214      5.6   934.1    0.00     152    59.0
 356   16:10   62.6    59    4.1   172      7.9   934.1    0.00     126    59.1
 356   16:20   62.8    49    3.4   106      9.8   934.0    0.00     101    59.1
 356   16:30   64.7    40    4.1   353     11.0   933.9    0.00      77    59.1
 356   16:40   64.0    46    3.4   287      7.1   933.9    0.00      56    59.1
 356   16:50   61.7    57    4.7   209      8.9   934.0    0.00      35    59.1
 356   17:00   59.8    58    6.2   191      9.3   933.9    0.00      16    59.1
 356   17:10   59.9    56    5.4   195      8.0   933.9    0.00       3    59.0
 356   17:20   59.6    57    5.3   187      8.2   933.9    0.00       1    59.0
 356   17:30   59.4    57    5.6   206     10.6   933.7    0.00       0    58.9
 356   17:40   59.5    55    5.1   188      9.8   933.7    0.00       0    58.7
 356   17:50   60.4    50    4.5   219      9.0   933.8    0.00       0    58.6
 356   18:00   59.5    54    4.8   197     10.0   933.9    0.00       0    58.5
 356   18:10   60.8    47    4.2   247     11.5   933.9    0.00       0    58.4
 356   18:20   60.5    50    4.1   211     14.7   933.9    0.00       0    58.3
 356   18:30   62.0    44    4.0   268     12.4   934.1    0.00       0    58.1
 356   18:40   62.6    40    4.1   265     12.1   934.1    0.00       0    58.0
 356   18:50   63.3    37    3.6   240     11.5   934.1    0.00       0    57.8
 356   19:00   63.6    36    3.5   286      7.5   934.2    0.00       0    57.6
 356   19:10   63.6    36    2.3   269      8.1   934.2    0.00       0    57.5
 356   19:20   62.3    41    3.3   242      7.5   934.3    0.00       0    57.4
 356   19:30   61.9    42    4.8   221      9.3   934.1    0.00       0    57.3
 356   19:40   61.2    44    4.4   204      9.7   934.1    0.00       0    57.2

Return to Highlands Peak graphs page.


Western Regional Climate Center,wrcc@dri.edu